sensor_id;sensor_type;location;lat;lon;timestamp;pressure;altitude;pressure_sealevel;temperature;humidity
76808;BME280;65758;45.458;11.062;2023-07-09T00:01:59;101432.82;;;24.72;47.72
76808;BME280;65758;45.458;11.062;2023-07-09T00:04:28;101431.86;;;24.63;47.85
76808;BME280;65758;45.458;11.062;2023-07-09T00:07:02;101430.58;;;24.55;48.02
76808;BME280;65758;45.458;11.062;2023-07-09T00:09:29;101430.77;;;24.49;48.07
76808;BME280;65758;45.458;11.062;2023-07-09T00:11:57;101428.48;;;24.45;48.23
76808;BME280;65758;45.458;11.062;2023-07-09T00:14:25;101433.52;;;24.42;48.30
76808;BME280;65758;45.458;11.062;2023-07-09T00:16:52;101425.08;;;24.33;48.54
76808;BME280;65758;45.458;11.062;2023-07-09T00:19:22;101420.23;;;24.24;48.81
76808;BME280;65758;45.458;11.062;2023-07-09T00:21:56;101421.68;;;24.17;48.82
76808;BME280;65758;45.458;11.062;2023-07-09T00:24:22;101418.29;;;24.13;48.88
76808;BME280;65758;45.458;11.062;2023-07-09T00:26:51;101420.09;;;24.14;48.81
76808;BME280;65758;45.458;11.062;2023-07-09T00:29:20;101416.83;;;24.16;48.89
76808;BME280;65758;45.458;11.062;2023-07-09T00:31:48;101415.71;;;24.15;48.95
76808;BME280;65758;45.458;11.062;2023-07-09T00:34:16;101421.09;;;24.15;48.95
76808;BME280;65758;45.458;11.062;2023-07-09T00:36:49;101417.52;;;24.13;48.96
76808;BME280;65758;45.458;11.062;2023-07-09T00:39:20;101414.84;;;24.09;49.10
76808;BME280;65758;45.458;11.062;2023-07-09T00:41:50;101409.04;;;24.07;49.25
76808;BME280;65758;45.458;11.062;2023-07-09T00:49:37;101407.77;;;24.15;49.21
76808;BME280;65758;45.458;11.062;2023-07-09T00:52:25;101405.33;;;24.15;49.27
76808;BME280;65758;45.458;11.062;2023-07-09T00:55:03;101406.59;;;24.16;49.18
76808;BME280;65758;45.458;11.062;2023-07-09T00:57:37;101402.05;;;24.16;49.29
76808;BME280;65758;45.458;11.062;2023-07-09T01:00:09;101402.14;;;24.18;49.26
76808;BME280;65758;45.458;11.062;2023-07-09T01:02:47;101404.02;;;24.19;49.18
76808;BME280;65758;45.458;11.062;2023-07-09T01:05:16;101402.39;;;24.20;49.20
76808;BME280;65758;45.458;11.062;2023-07-09T01:07:46;101402.33;;;24.20;49.26
76808;BME280;65758;45.458;11.062;2023-07-09T01:10:17;101398.45;;;24.18;49.26
76808;BME280;65758;45.458;11.062;2023-07-09T01:12:48;101402.91;;;24.14;49.30
76808;BME280;65758;45.458;11.062;2023-07-09T01:15:17;101404.35;;;24.16;49.30
76808;BME280;65758;45.458;11.062;2023-07-09T01:17:44;101406.30;;;24.15;49.30
76808;BME280;65758;45.458;11.062;2023-07-09T01:20:18;101404.43;;;24.14;49.30
76808;BME280;65758;45.458;11.062;2023-07-09T01:22:51;101408.41;;;24.12;49.42
76808;BME280;65758;45.458;11.062;2023-07-09T01:25:25;101405.48;;;24.09;49.60
76808;BME280;65758;45.458;11.062;2023-07-09T01:27:54;101410.45;;;24.06;49.63
76808;BME280;65758;45.458;11.062;2023-07-09T01:30:38;101406.91;;;24.03;49.71
76808;BME280;65758;45.458;11.062;2023-07-09T01:33:05;101404.81;;;24.01;49.75
76808;BME280;65758;45.458;11.062;2023-07-09T01:35:36;101404.42;;;23.98;49.79
76808;BME280;65758;45.458;11.062;2023-07-09T01:38:03;101399.95;;;23.93;49.88
76808;BME280;65758;45.458;11.062;2023-07-09T01:40:36;101398.52;;;23.91;49.99
76808;BME280;65758;45.458;11.062;2023-07-09T01:43:05;101398.89;;;23.88;50.03
76808;BME280;65758;45.458;11.062;2023-07-09T01:45:35;101399.83;;;23.85;50.09
76808;BME280;65758;45.458;11.062;2023-07-09T01:48:05;101395.46;;;23.80;50.21
76808;BME280;65758;45.458;11.062;2023-07-09T01:50:35;101398.45;;;23.79;50.26
76808;BME280;65758;45.458;11.062;2023-07-09T01:53:02;101396.25;;;23.80;50.50
76808;BME280;65758;45.458;11.062;2023-07-09T01:55:31;101401.09;;;23.81;50.45
76808;BME280;65758;45.458;11.062;2023-07-09T01:57:58;101397.73;;;23.81;50.61
76808;BME280;65758;45.458;11.062;2023-07-09T02:00:28;101394.22;;;23.81;50.59
76808;BME280;65758;45.458;11.062;2023-07-09T02:02:56;101392.83;;;23.80;50.58
76808;BME280;65758;45.458;11.062;2023-07-09T02:05:26;101391.08;;;23.83;50.56
76808;BME280;65758;45.458;11.062;2023-07-09T02:07:54;101392.98;;;23.82;50.45
76808;BME280;65758;45.458;11.062;2023-07-09T02:10:21;101393.73;;;23.76;50.65
76808;BME280;65758;45.458;11.062;2023-07-09T02:12:50;101395.92;;;23.71;50.68
76808;BME280;65758;45.458;11.062;2023-07-09T02:15:18;101399.84;;;23.70;50.68
76808;BME280;65758;45.458;11.062;2023-07-09T02:17:45;101403.70;;;23.69;50.78
76808;BME280;65758;45.458;11.062;2023-07-09T02:20:12;101404.95;;;23.69;50.99
76808;BME280;65758;45.458;11.062;2023-07-09T02:22:40;101408.55;;;23.72;50.80
76808;BME280;65758;45.458;11.062;2023-07-09T02:25:08;101410.13;;;23.70;50.84
76808;BME280;65758;45.458;11.062;2023-07-09T02:27:36;101407.89;;;23.70;50.94
76808;BME280;65758;45.458;11.062;2023-07-09T02:30:05;101409.57;;;23.70;50.99
76808;BME280;65758;45.458;11.062;2023-07-09T02:32:32;101409.45;;;23.71;50.97
76808;BME280;65758;45.458;11.062;2023-07-09T02:35:05;101413.33;;;23.68;51.03
76808;BME280;65758;45.458;11.062;2023-07-09T02:37:32;101415.04;;;23.62;51.11
76808;BME280;65758;45.458;11.062;2023-07-09T02:40:00;101413.98;;;23.57;51.23
76808;BME280;65758;45.458;11.062;2023-07-09T02:42:27;101412.41;;;23.57;51.53
76808;BME280;65758;45.458;11.062;2023-07-09T02:44:56;101416.80;;;23.59;51.60
76808;BME280;65758;45.458;11.062;2023-07-09T02:47:26;101413.89;;;23.60;51.45
76808;BME280;65758;45.458;11.062;2023-07-09T02:49:53;101412.96;;;23.53;51.44
76808;BME280;65758;45.458;11.062;2023-07-09T02:52:20;101416.66;;;23.46;51.64
76808;BME280;65758;45.458;11.062;2023-07-09T02:54:47;101414.46;;;23.44;51.67
76808;BME280;65758;45.458;11.062;2023-07-09T02:57:14;101412.71;;;23.46;51.94
76808;BME280;65758;45.458;11.062;2023-07-09T02:59:41;101412.08;;;23.46;52.00
76808;BME280;65758;45.458;11.062;2023-07-09T03:02:08;101410.83;;;23.44;52.08
76808;BME280;65758;45.458;11.062;2023-07-09T03:04:35;101412.73;;;23.42;52.19
76808;BME280;65758;45.458;11.062;2023-07-09T03:07:02;101412.83;;;23.37;52.09
76808;BME280;65758;45.458;11.062;2023-07-09T03:09:29;101413.21;;;23.32;52.40
76808;BME280;65758;45.458;11.062;2023-07-09T03:11:56;101415.77;;;23.29;52.67
76808;BME280;65758;45.458;11.062;2023-07-09T03:14:24;101413.38;;;23.27;52.78
76808;BME280;65758;45.458;11.062;2023-07-09T03:16:52;101413.17;;;23.24;52.91
76808;BME280;65758;45.458;11.062;2023-07-09T03:19:20;101411.39;;;23.24;53.01
76808;BME280;65758;45.458;11.062;2023-07-09T03:21:48;101412.35;;;23.23;52.89
76808;BME280;65758;45.458;11.062;2023-07-09T03:24:14;101414.83;;;23.22;53.03
76808;BME280;65758;45.458;11.062;2023-07-09T03:26:47;101416.50;;;23.22;52.88
76808;BME280;65758;45.458;11.062;2023-07-09T03:29:15;101416.05;;;23.22;53.09
76808;BME280;65758;45.458;11.062;2023-07-09T03:31:45;101413.45;;;23.22;53.14
76808;BME280;65758;45.458;11.062;2023-07-09T03:34:12;101415.41;;;23.20;53.29
76808;BME280;65758;45.458;11.062;2023-07-09T03:36:40;101411.52;;;23.17;53.33
76808;BME280;65758;45.458;11.062;2023-07-09T03:39:14;101408.81;;;23.20;53.25
76808;BME280;65758;45.458;11.062;2023-07-09T03:41:42;101402.81;;;23.23;53.21
76808;BME280;65758;45.458;11.062;2023-07-09T03:44:10;101404.98;;;23.28;53.20
76808;BME280;65758;45.458;11.062;2023-07-09T03:46:37;101405.42;;;23.29;53.18
76808;BME280;65758;45.458;11.062;2023-07-09T03:49:03;101406.59;;;23.30;53.19
76808;BME280;65758;45.458;11.062;2023-07-09T03:51:30;101405.67;;;23.32;53.17
76808;BME280;65758;45.458;11.062;2023-07-09T03:53:57;101404.30;;;23.34;53.20
76808;BME280;65758;45.458;11.062;2023-07-09T03:56:24;101402.00;;;23.37;53.17
76808;BME280;65758;45.458;11.062;2023-07-09T03:58:53;101406.70;;;23.39;53.17
76808;BME280;65758;45.458;11.062;2023-07-09T04:01:20;101406.20;;;23.39;53.14
76808;BME280;65758;45.458;11.062;2023-07-09T04:03:52;101406.95;;;23.38;53.18
76808;BME280;65758;45.458;11.062;2023-07-09T04:06:20;101403.39;;;23.36;53.18
76808;BME280;65758;45.458;11.062;2023-07-09T04:08:47;101407.70;;;23.35;53.26
76808;BME280;65758;45.458;11.062;2023-07-09T04:11:15;101403.79;;;23.37;53.22
76808;BME280;65758;45.458;11.062;2023-07-09T04:13:51;101401.23;;;23.41;53.28
76808;BME280;65758;45.458;11.062;2023-07-09T04:16:18;101403.57;;;23.44;53.26
76808;BME280;65758;45.458;11.062;2023-07-09T04:18:44;101404.39;;;23.45;53.07
76808;BME280;65758;45.458;11.062;2023-07-09T04:21:14;101404.14;;;23.49;53.14
76808;BME280;65758;45.458;11.062;2023-07-09T04:23:40;101405.39;;;23.50;53.03
76808;BME280;65758;45.458;11.062;2023-07-09T04:26:12;101410.59;;;23.50;53.11
76808;BME280;65758;45.458;11.062;2023-07-09T04:28:39;101408.53;;;23.54;53.27
76808;BME280;65758;45.458;11.062;2023-07-09T04:31:06;101406.93;;;23.57;53.49
76808;BME280;65758;45.458;11.062;2023-07-09T04:33:33;101404.90;;;23.59;53.50
76808;BME280;65758;45.458;11.062;2023-07-09T04:36:04;101404.02;;;23.58;53.50
76808;BME280;65758;45.458;11.062;2023-07-09T04:38:34;101407.94;;;23.57;53.36
76808;BME280;65758;45.458;11.062;2023-07-09T04:41:01;101411.70;;;23.56;53.34
76808;BME280;65758;45.458;11.062;2023-07-09T04:43:29;101409.41;;;23.56;53.28
76808;BME280;65758;45.458;11.062;2023-07-09T04:45:59;101415.28;;;23.56;53.33
76808;BME280;65758;45.458;11.062;2023-07-09T04:48:27;101416.73;;;23.57;53.46
76808;BME280;65758;45.458;11.062;2023-07-09T04:50:53;101421.13;;;23.57;53.24
76808;BME280;65758;45.458;11.062;2023-07-09T04:53:20;101420.20;;;23.56;53.52
76808;BME280;65758;45.458;11.062;2023-07-09T04:55:48;101424.11;;;23.59;53.58
76808;BME280;65758;45.458;11.062;2023-07-09T04:58:17;101425.42;;;23.62;53.52
76808;BME280;65758;45.458;11.062;2023-07-09T05:00:46;101425.45;;;23.65;53.58
76808;BME280;65758;45.458;11.062;2023-07-09T05:03:14;101419.83;;;23.68;53.71
76808;BME280;65758;45.458;11.062;2023-07-09T05:05:45;101418.88;;;23.72;53.79
76808;BME280;65758;45.458;11.062;2023-07-09T05:08:13;101424.07;;;23.77;53.83
76808;BME280;65758;45.458;11.062;2023-07-09T05:10:42;101422.11;;;23.82;53.86
76808;BME280;65758;45.458;11.062;2023-07-09T05:13:09;101423.88;;;23.89;53.81
76808;BME280;65758;45.458;11.062;2023-07-09T05:15:43;101427.68;;;23.93;54.06
76808;BME280;65758;45.458;11.062;2023-07-09T05:18:12;101428.58;;;23.97;53.95
76808;BME280;65758;45.458;11.062;2023-07-09T05:20:40;101423.14;;;24.03;53.87
76808;BME280;65758;45.458;11.062;2023-07-09T05:23:10;101424.74;;;24.18;53.77
76808;BME280;65758;45.458;11.062;2023-07-09T05:25:39;101427.27;;;24.41;53.26
76808;BME280;65758;45.458;11.062;2023-07-09T05:28:06;101426.38;;;24.69;52.68
76808;BME280;65758;45.458;11.062;2023-07-09T05:30:33;101431.36;;;24.95;52.21
76808;BME280;65758;45.458;11.062;2023-07-09T05:33:01;101430.26;;;25.25;51.89
76808;BME280;65758;45.458;11.062;2023-07-09T05:35:28;101434.94;;;25.54;51.32
76808;BME280;65758;45.458;11.062;2023-07-09T05:37:55;101435.84;;;25.80;50.70
76808;BME280;65758;45.458;11.062;2023-07-09T05:40:23;101434.30;;;26.04;50.16
76808;BME280;65758;45.458;11.062;2023-07-09T05:42:50;101425.67;;;26.30;49.65
76808;BME280;65758;45.458;11.062;2023-07-09T05:45:17;101425.52;;;26.56;49.15
76808;BME280;65758;45.458;11.062;2023-07-09T05:47:44;101427.13;;;26.85;48.87
76808;BME280;65758;45.458;11.062;2023-07-09T05:50:11;101424.90;;;27.11;48.25
76808;BME280;65758;45.458;11.062;2023-07-09T05:52:39;101425.58;;;27.28;47.85
76808;BME280;65758;45.458;11.062;2023-07-09T05:55:06;101428.10;;;27.36;47.59
76808;BME280;65758;45.458;11.062;2023-07-09T05:57:35;101427.27;;;27.40;47.41
76808;BME280;65758;45.458;11.062;2023-07-09T06:00:02;101426.94;;;27.43;47.42
76808;BME280;65758;45.458;11.062;2023-07-09T06:02:39;101428.96;;;27.52;47.42
76808;BME280;65758;45.458;11.062;2023-07-09T06:05:07;101429.24;;;27.63;47.28
76808;BME280;65758;45.458;11.062;2023-07-09T06:07:38;101427.40;;;27.74;47.02
76808;BME280;65758;45.458;11.062;2023-07-09T06:10:06;101425.66;;;27.87;46.78
76808;BME280;65758;45.458;11.062;2023-07-09T06:12:37;101436.13;;;27.98;46.58
76808;BME280;65758;45.458;11.062;2023-07-09T06:15:08;101435.13;;;28.06;46.42
76808;BME280;65758;45.458;11.062;2023-07-09T06:17:35;101432.77;;;28.10;47.04
76808;BME280;65758;45.458;11.062;2023-07-09T06:20:04;101435.17;;;28.15;47.96
76808;BME280;65758;45.458;11.062;2023-07-09T06:22:32;101437.49;;;28.16;48.66
76808;BME280;65758;45.458;11.062;2023-07-09T06:24:59;101437.54;;;28.17;48.88
76808;BME280;65758;45.458;11.062;2023-07-09T06:27:27;101438.66;;;28.22;49.12
76808;BME280;65758;45.458;11.062;2023-07-09T06:29:54;101439.73;;;28.32;49.07
76808;BME280;65758;45.458;11.062;2023-07-09T06:32:21;101437.79;;;28.45;48.26
76808;BME280;65758;45.458;11.062;2023-07-09T06:34:48;101438.77;;;28.59;48.08
76808;BME280;65758;45.458;11.062;2023-07-09T06:37:15;101441.34;;;28.74;47.90
76808;BME280;65758;45.458;11.062;2023-07-09T06:39:43;101439.95;;;28.91;47.84
76808;BME280;65758;45.458;11.062;2023-07-09T06:42:12;101445.40;;;29.08;46.93
76808;BME280;65758;45.458;11.062;2023-07-09T06:44:59;101444.98;;;29.29;46.48
76808;BME280;65758;45.458;11.062;2023-07-09T06:47:25;101446.92;;;29.45;45.86
76808;BME280;65758;45.458;11.062;2023-07-09T06:49:53;101449.16;;;29.61;45.48
76808;BME280;65758;45.458;11.062;2023-07-09T06:52:20;101451.15;;;29.78;44.58
76808;BME280;65758;45.458;11.062;2023-07-09T06:54:48;101444.55;;;29.95;43.75
76808;BME280;65758;45.458;11.062;2023-07-09T06:57:15;101444.85;;;30.14;43.64
76808;BME280;65758;45.458;11.062;2023-07-09T06:59:42;101447.46;;;30.30;43.16
76808;BME280;65758;45.458;11.062;2023-07-09T07:02:09;101448.81;;;30.46;42.66
76808;BME280;65758;45.458;11.062;2023-07-09T07:04:36;101446.73;;;30.62;42.22
76808;BME280;65758;45.458;11.062;2023-07-09T07:07:04;101441.98;;;30.77;41.34
76808;BME280;65758;45.458;11.062;2023-07-09T07:09:30;101447.52;;;30.89;40.95
76808;BME280;65758;45.458;11.062;2023-07-09T07:11:58;101444.11;;;31.01;40.45
76808;BME280;65758;45.458;11.062;2023-07-09T07:14:28;101450.07;;;31.11;40.07
76808;BME280;65758;45.458;11.062;2023-07-09T07:16:56;101449.73;;;31.20;40.14
76808;BME280;65758;45.458;11.062;2023-07-09T07:19:24;101449.63;;;31.30;40.02
76808;BME280;65758;45.458;11.062;2023-07-09T07:21:54;101454.30;;;31.44;39.65
76808;BME280;65758;45.458;11.062;2023-07-09T07:24:20;101454.84;;;31.54;39.28
76808;BME280;65758;45.458;11.062;2023-07-09T07:26:47;101451.05;;;31.65;39.36
76808;BME280;65758;45.458;11.062;2023-07-09T07:29:17;101452.21;;;31.78;38.67
76808;BME280;65758;45.458;11.062;2023-07-09T07:31:43;101448.73;;;31.87;38.65
76808;BME280;65758;45.458;11.062;2023-07-09T07:34:10;101449.54;;;31.97;38.32
76808;BME280;65758;45.458;11.062;2023-07-09T07:36:37;101452.13;;;32.04;38.19
76808;BME280;65758;45.458;11.062;2023-07-09T07:39:08;101448.77;;;32.14;38.07
76808;BME280;65758;45.458;11.062;2023-07-09T07:41:35;101448.17;;;32.29;37.98
76808;BME280;65758;45.458;11.062;2023-07-09T07:44:02;101449.51;;;32.43;37.43
76808;BME280;65758;45.458;11.062;2023-07-09T07:46:33;101447.23;;;32.55;37.55
76808;BME280;65758;45.458;11.062;2023-07-09T07:49:01;101444.02;;;32.68;37.32
76808;BME280;65758;45.458;11.062;2023-07-09T07:51:27;101443.51;;;32.81;37.09
76808;BME280;65758;45.458;11.062;2023-07-09T07:53:58;101443.31;;;32.94;36.80
76808;BME280;65758;45.458;11.062;2023-07-09T07:56:27;101445.45;;;33.01;36.53
76808;BME280;65758;45.458;11.062;2023-07-09T07:58:55;101445.87;;;33.09;36.33
76808;BME280;65758;45.458;11.062;2023-07-09T08:01:22;101449.41;;;33.16;36.43
76808;BME280;65758;45.458;11.062;2023-07-09T08:03:51;101450.04;;;33.24;36.54
76808;BME280;65758;45.458;11.062;2023-07-09T08:06:19;101450.67;;;33.38;36.58
76808;BME280;65758;45.458;11.062;2023-07-09T08:08:47;101450.42;;;33.50;36.19
76808;BME280;65758;45.458;11.062;2023-07-09T08:11:14;101451.17;;;33.60;36.26
76808;BME280;65758;45.458;11.062;2023-07-09T08:13:42;101449.86;;;33.70;35.91
76808;BME280;65758;45.458;11.062;2023-07-09T08:16:09;101444.88;;;33.79;35.93
76808;BME280;65758;45.458;11.062;2023-07-09T08:18:38;101443.74;;;33.85;35.48
76808;BME280;65758;45.458;11.062;2023-07-09T08:21:06;101445.51;;;33.93;35.63
76808;BME280;65758;45.458;11.062;2023-07-09T08:23:36;101449.01;;;34.04;35.08
76808;BME280;65758;45.458;11.062;2023-07-09T08:26:03;101447.21;;;34.11;34.90
76808;BME280;65758;45.458;11.062;2023-07-09T08:28:31;101445.30;;;34.18;34.51
76808;BME280;65758;45.458;11.062;2023-07-09T08:30:58;101445.66;;;34.26;34.68
76808;BME280;65758;45.458;11.062;2023-07-09T08:33:24;101448.77;;;34.37;34.33
76808;BME280;65758;45.458;11.062;2023-07-09T08:35:52;101448.52;;;34.47;34.21
76808;BME280;65758;45.458;11.062;2023-07-09T08:38:21;101453.90;;;34.55;33.72
76808;BME280;65758;45.458;11.062;2023-07-09T08:41:20;101453.16;;;34.65;33.40
76808;BME280;65758;45.458;11.062;2023-07-09T08:49:43;101445.03;;;34.99;34.13
76808;BME280;65758;45.458;11.062;2023-07-09T08:55:00;101446.13;;;35.10;33.61
76808;BME280;65758;45.458;11.062;2023-07-09T08:57:33;101441.52;;;35.18;33.82
76808;BME280;65758;45.458;11.062;2023-07-09T09:00:07;101445.79;;;35.27;33.70
76808;BME280;65758;45.458;11.062;2023-07-09T09:02:45;101444.83;;;35.37;33.27
76808;BME280;65758;45.458;11.062;2023-07-09T09:05:17;101437.06;;;35.48;33.58
76808;BME280;65758;45.458;11.062;2023-07-09T09:07:51;101438.17;;;35.63;33.04
76808;BME280;65758;45.458;11.062;2023-07-09T09:10:33;101439.39;;;35.76;32.90
76808;BME280;65758;45.458;11.062;2023-07-09T09:13:12;101439.68;;;35.84;32.84
76808;BME280;65758;45.458;11.062;2023-07-09T09:15:41;101442.02;;;35.93;33.12
76808;BME280;65758;45.458;11.062;2023-07-09T09:18:23;101446.83;;;35.88;33.48
76808;BME280;65758;45.458;11.062;2023-07-09T09:21:03;101447.14;;;35.82;33.55
76808;BME280;65758;45.458;11.062;2023-07-09T09:27:43;101441.39;;;35.65;33.64
76808;BME280;65758;45.458;11.062;2023-07-09T09:30:16;101443.73;;;35.73;33.75
76808;BME280;65758;45.458;11.062;2023-07-09T09:32:47;101442.30;;;35.80;33.87
76808;BME280;65758;45.458;11.062;2023-07-09T09:35:18;101445.39;;;35.89;33.30
76808;BME280;65758;45.458;11.062;2023-07-09T09:37:57;101450.48;;;35.88;33.52
76808;BME280;65758;45.458;11.062;2023-07-09T09:40:26;101450.11;;;35.89;33.01
76808;BME280;65758;45.458;11.062;2023-07-09T09:42:56;101450.30;;;35.91;32.74
76808;BME280;65758;45.458;11.062;2023-07-09T09:45:36;101447.30;;;35.91;32.56
76808;BME280;65758;45.458;11.062;2023-07-09T09:48:17;101447.63;;;35.91;32.55
76808;BME280;65758;45.458;11.062;2023-07-09T09:50:47;101441.76;;;35.91;32.71
76808;BME280;65758;45.458;11.062;2023-07-09T09:53:19;101438.33;;;35.95;32.68
76808;BME280;65758;45.458;11.062;2023-07-09T09:55:52;101444.22;;;36.07;32.75
76808;BME280;65758;45.458;11.062;2023-07-09T09:58:26;101444.39;;;36.22;32.41
76808;BME280;65758;45.458;11.062;2023-07-09T10:00:57;101445.90;;;36.30;32.60
76808;BME280;65758;45.458;11.062;2023-07-09T10:03:38;101450.19;;;36.34;32.34
76808;BME280;65758;45.458;11.062;2023-07-09T10:06:19;101446.09;;;36.38;32.44
76808;BME280;65758;45.458;11.062;2023-07-09T10:08:52;101449.50;;;36.37;32.26
76808;BME280;65758;45.458;11.062;2023-07-09T10:16:45;101446.71;;;36.36;31.93
76808;BME280;65758;45.458;11.062;2023-07-09T10:19:24;101441.43;;;36.42;31.79
76808;BME280;65758;45.458;11.062;2023-07-09T10:22:00;101442.21;;;36.52;31.99
76808;BME280;65758;45.458;11.062;2023-07-09T10:25:01;101442.44;;;36.60;32.04
76808;BME280;65758;45.458;11.062;2023-07-09T10:33:58;101451.36;;;36.48;32.33
76808;BME280;65758;45.458;11.062;2023-07-09T10:39:10;101445.05;;;36.55;32.00
76808;BME280;65758;45.458;11.062;2023-07-09T10:41:42;101443.18;;;36.66;31.73
76808;BME280;65758;45.458;11.062;2023-07-09T10:44:18;101442.33;;;36.76;31.77
76808;BME280;65758;45.458;11.062;2023-07-09T10:46:50;101439.19;;;36.79;31.70
76808;BME280;65758;45.458;11.062;2023-07-09T10:49:21;101437.69;;;36.82;31.66
76808;BME280;65758;45.458;11.062;2023-07-09T10:51:55;101438.84;;;36.83;31.45
76808;BME280;65758;45.458;11.062;2023-07-09T10:57:49;101436.05;;;36.81;31.33
76808;BME280;65758;45.458;11.062;2023-07-09T11:00:20;101440.71;;;36.84;31.25
76808;BME280;65758;45.458;11.062;2023-07-09T11:02:58;101440.35;;;36.88;31.04
76808;BME280;65758;45.458;11.062;2023-07-09T11:05:28;101442.23;;;36.95;31.57
76808;BME280;65758;45.458;11.062;2023-07-09T11:08:07;101436.92;;;37.05;30.98
76808;BME280;65758;45.458;11.062;2023-07-09T11:10:40;101437.10;;;37.13;30.85
76808;BME280;65758;45.458;11.062;2023-07-09T11:13:43;101435.02;;;37.16;30.59
76808;BME280;65758;45.458;11.062;2023-07-09T11:16:30;101436.63;;;37.22;30.37
76808;BME280;65758;45.458;11.062;2023-07-09T11:19:02;101435.68;;;37.25;30.58
76808;BME280;65758;45.458;11.062;2023-07-09T11:21:31;101437.54;;;37.23;30.32
76808;BME280;65758;45.458;11.062;2023-07-09T11:24:03;101441.25;;;37.12;30.28
76808;BME280;65758;45.458;11.062;2023-07-09T11:26:32;101436.55;;;37.02;30.37
76808;BME280;65758;45.458;11.062;2023-07-09T11:29:11;101433.77;;;36.97;30.91
76808;BME280;65758;45.458;11.062;2023-07-09T11:31:43;101426.67;;;36.96;31.33
76808;BME280;65758;45.458;11.062;2023-07-09T11:36:51;101424.56;;;36.96;30.92
76808;BME280;65758;45.458;11.062;2023-07-09T11:39:46;101420.70;;;36.94;30.91
76808;BME280;65758;45.458;11.062;2023-07-09T11:45:21;101415.43;;;36.91;31.09
76808;BME280;65758;45.458;11.062;2023-07-09T11:47:53;101412.73;;;36.81;30.98
76808;BME280;65758;45.458;11.062;2023-07-09T11:50:40;101411.36;;;36.71;31.11
76808;BME280;65758;45.458;11.062;2023-07-09T11:53:57;101411.84;;;36.57;31.20
76808;BME280;65758;45.458;11.062;2023-07-09T11:56:07;101406.03;;;36.52;31.61
76808;BME280;65758;45.458;11.062;2023-07-09T11:58:35;101407.85;;;36.57;31.60
76808;BME280;65758;45.458;11.062;2023-07-09T12:01:16;101401.54;;;36.67;31.80
76808;BME280;65758;45.458;11.062;2023-07-09T12:03:46;101395.90;;;36.73;31.65
76808;BME280;65758;45.458;11.062;2023-07-09T12:06:20;101393.34;;;36.76;31.66
76808;BME280;65758;45.458;11.062;2023-07-09T12:08:52;101397.10;;;36.84;31.79
76808;BME280;65758;45.458;11.062;2023-07-09T12:11:21;101394.38;;;36.81;31.50
76808;BME280;65758;45.458;11.062;2023-07-09T12:13:52;101395.10;;;36.74;31.69
76808;BME280;65758;45.458;11.062;2023-07-09T12:16:35;101388.17;;;36.74;31.89
76808;BME280;65758;45.458;11.062;2023-07-09T12:19:06;101381.50;;;36.75;32.07
76808;BME280;65758;45.458;11.062;2023-07-09T12:21:38;101386.10;;;36.85;31.88
76808;BME280;65758;45.458;11.062;2023-07-09T12:26:48;101377.36;;;37.10;31.55
76808;BME280;65758;45.458;11.062;2023-07-09T12:29:36;101369.83;;;37.24;31.61
76808;BME280;65758;45.458;11.062;2023-07-09T12:32:12;101366.16;;;37.33;31.50
76808;BME280;65758;45.458;11.062;2023-07-09T12:34:53;101365.41;;;37.40;31.35
76808;BME280;65758;45.458;11.062;2023-07-09T12:37:31;101365.53;;;37.46;31.33
76808;BME280;65758;45.458;11.062;2023-07-09T12:39:59;101364.29;;;37.43;31.23
76808;BME280;65758;45.458;11.062;2023-07-09T12:42:33;101356.60;;;37.23;31.26
76808;BME280;65758;45.458;11.062;2023-07-09T12:45:04;101355.80;;;37.02;31.71
76808;BME280;65758;45.458;11.062;2023-07-09T12:47:33;101355.45;;;36.94;32.01
76808;BME280;65758;45.458;11.062;2023-07-09T12:53:22;101358.17;;;36.67;32.00
76808;BME280;65758;45.458;11.062;2023-07-09T12:55:48;101353.61;;;36.61;32.56
76808;BME280;65758;45.458;11.062;2023-07-09T12:58:21;101354.86;;;36.70;32.58
76808;BME280;65758;45.458;11.062;2023-07-09T13:00:52;101353.48;;;36.76;32.59
76808;BME280;65758;45.458;11.062;2023-07-09T13:03:26;101347.98;;;36.88;32.69
76808;BME280;65758;45.458;11.062;2023-07-09T13:05:57;101345.52;;;36.95;32.54
76808;BME280;65758;45.458;11.062;2023-07-09T13:08:28;101344.50;;;36.98;32.37
76808;BME280;65758;45.458;11.062;2023-07-09T13:10:55;101340.36;;;37.00;32.14
76808;BME280;65758;45.458;11.062;2023-07-09T13:13:24;101341.09;;;37.00;32.32
76808;BME280;65758;45.458;11.062;2023-07-09T13:18:24;101339.79;;;36.84;32.48
76808;BME280;65758;45.458;11.062;2023-07-09T13:20:54;101338.89;;;36.78;32.96
76808;BME280;65758;45.458;11.062;2023-07-09T13:23:28;101334.73;;;36.84;33.13
76808;BME280;65758;45.458;11.062;2023-07-09T13:25:59;101335.20;;;36.91;33.04
76808;BME280;65758;45.458;11.062;2023-07-09T13:28:30;101333.55;;;36.89;33.03
76808;BME280;65758;45.458;11.062;2023-07-09T13:31:08;101331.34;;;36.88;32.88
76808;BME280;65758;45.458;11.062;2023-07-09T13:33:37;101325.88;;;36.96;32.74
76808;BME280;65758;45.458;11.062;2023-07-09T13:36:04;101324.58;;;37.03;32.64
76808;BME280;65758;45.458;11.062;2023-07-09T13:38:34;101328.41;;;37.10;32.45
76808;BME280;65758;45.458;11.062;2023-07-09T13:41:14;101326.59;;;37.15;32.38
76808;BME280;65758;45.458;11.062;2023-07-09T13:43:45;101324.88;;;37.16;32.26
76808;BME280;65758;45.458;11.062;2023-07-09T13:46:14;101323.98;;;37.14;32.13
76808;BME280;65758;45.458;11.062;2023-07-09T13:48:42;101323.83;;;37.17;32.35